sensor_id;sensor_type;location;lat;lon;timestamp;pressure;altitude;pressure_sealevel;temperature;humidity
80188;BME280;73735;52.134;5.436;2024-01-10T00:02:20;103414.78;;;-3.48;57.77
80188;BME280;73735;52.134;5.436;2024-01-10T00:04:47;103421.63;;;-3.49;58.05
80188;BME280;73735;52.134;5.436;2024-01-10T00:07:14;103420.00;;;-3.45;58.02
80188;BME280;73735;52.134;5.436;2024-01-10T00:09:40;103410.44;;;-3.51;57.80
80188;BME280;73735;52.134;5.436;2024-01-10T00:12:07;103407.03;;;-3.50;58.36
80188;BME280;73735;52.134;5.436;2024-01-10T00:14:33;103413.88;;;-3.50;58.56
80188;BME280;73735;52.134;5.436;2024-01-10T00:16:59;103413.00;;;-3.51;58.16
80188;BME280;73735;52.134;5.436;2024-01-10T00:19:26;103417.25;;;-3.53;58.58
80188;BME280;73735;52.134;5.436;2024-01-10T00:21:52;103411.28;;;-3.52;58.68
80188;BME280;73735;52.134;5.436;2024-01-10T00:24:19;103410.38;;;-3.54;58.62
80188;BME280;73735;52.134;5.436;2024-01-10T00:26:45;103406.22;;;-3.47;58.82
80188;BME280;73735;52.134;5.436;2024-01-10T00:29:12;103408.69;;;-3.52;58.95
80188;BME280;73735;52.134;5.436;2024-01-10T00:31:39;103406.97;;;-3.53;58.92
80188;BME280;73735;52.134;5.436;2024-01-10T00:34:06;103406.09;;;-3.53;58.94
80188;BME280;73735;52.134;5.436;2024-01-10T00:36:32;103394.22;;;-3.47;59.03
80188;BME280;73735;52.134;5.436;2024-01-10T00:38:59;103395.06;;;-3.48;59.17
80188;BME280;73735;52.134;5.436;2024-01-10T00:41:25;103396.66;;;-3.53;59.01
80188;BME280;73735;52.134;5.436;2024-01-10T00:43:52;103388.78;;;-3.61;59.28
80188;BME280;73735;52.134;5.436;2024-01-10T00:46:18;103401.66;;;-3.61;59.06
80188;BME280;73735;52.134;5.436;2024-01-10T00:48:45;103394.00;;;-3.58;59.60
80188;BME280;73735;52.134;5.436;2024-01-10T00:51:12;103391.44;;;-3.58;59.48
80188;BME280;73735;52.134;5.436;2024-01-10T00:53:38;103392.38;;;-3.52;59.39
80188;BME280;73735;52.134;5.436;2024-01-10T00:56:06;103390.69;;;-3.52;59.55
80188;BME280;73735;52.134;5.436;2024-01-10T00:58:32;103385.44;;;-3.57;59.63
80188;BME280;73735;52.134;5.436;2024-01-10T01:00:59;103386.19;;;-3.62;59.66
80188;BME280;73735;52.134;5.436;2024-01-10T01:03:26;103384.41;;;-3.65;59.98
80188;BME280;73735;52.134;5.436;2024-01-10T01:05:52;103386.16;;;-3.64;59.65
80188;BME280;73735;52.134;5.436;2024-01-10T01:08:22;103386.16;;;-3.64;60.17
80188;BME280;73735;52.134;5.436;2024-01-10T01:10:48;103373.19;;;-3.67;59.84
80188;BME280;73735;52.134;5.436;2024-01-10T01:13:15;103385.28;;;-3.64;60.14
80188;BME280;73735;52.134;5.436;2024-01-10T01:15:41;103388.66;;;-3.67;60.17
80188;BME280;73735;52.134;5.436;2024-01-10T01:18:08;103383.47;;;-3.68;60.23
80188;BME280;73735;52.134;5.436;2024-01-10T01:20:36;103390.31;;;-3.69;60.47
80188;BME280;73735;52.134;5.436;2024-01-10T01:23:03;103380.84;;;-3.71;60.66
80188;BME280;73735;52.134;5.436;2024-01-10T01:25:29;103388.53;;;-3.73;60.31
80188;BME280;73735;52.134;5.436;2024-01-10T01:27:56;103387.66;;;-3.73;60.36
80188;BME280;73735;52.134;5.436;2024-01-10T01:30:22;103382.56;;;-3.72;60.67
80188;BME280;73735;52.134;5.436;2024-01-10T01:32:49;103378.28;;;-3.71;60.51
80188;BME280;73735;52.134;5.436;2024-01-10T01:35:16;103372.28;;;-3.69;60.11
80188;BME280;73735;52.134;5.436;2024-01-10T01:37:48;103375.69;;;-3.71;60.40
80188;BME280;73735;52.134;5.436;2024-01-10T01:40:15;103373.94;;;-3.74;60.36
80188;BME280;73735;52.134;5.436;2024-01-10T01:42:44;103374.69;;;-3.78;60.53
80188;BME280;73735;52.134;5.436;2024-01-10T01:45:11;103372.97;;;-3.77;60.37
80188;BME280;73735;52.134;5.436;2024-01-10T01:47:38;103365.31;;;-3.76;59.92
80188;BME280;73735;52.134;5.436;2024-01-10T01:50:06;103365.31;;;-3.76;60.06
80188;BME280;73735;52.134;5.436;2024-01-10T01:52:33;103359.22;;;-3.79;60.41
80188;BME280;73735;52.134;5.436;2024-01-10T01:55:01;103359.13;;;-3.82;60.42
80188;BME280;73735;52.134;5.436;2024-01-10T01:57:28;103350.63;;;-3.80;60.31
80188;BME280;73735;52.134;5.436;2024-01-10T01:59:56;103363.44;;;-3.81;60.34
80188;BME280;73735;52.134;5.436;2024-01-10T02:02:22;103354.06;;;-3.79;60.65
80188;BME280;73735;52.134;5.436;2024-01-10T02:04:50;103361.72;;;-3.82;60.32
80188;BME280;73735;52.134;5.436;2024-01-10T02:07:17;103357.41;;;-3.83;60.78
80188;BME280;73735;52.134;5.436;2024-01-10T02:09:43;103361.69;;;-3.84;60.50
80188;BME280;73735;52.134;5.436;2024-01-10T02:12:10;103356.63;;;-3.79;60.82
80188;BME280;73735;52.134;5.436;2024-01-10T02:14:37;103362.53;;;-3.83;60.77
80188;BME280;73735;52.134;5.436;2024-01-10T02:17:03;103354.75;;;-3.88;60.83
80188;BME280;73735;52.134;5.436;2024-01-10T02:19:30;103350.44;;;-3.89;61.35
80188;BME280;73735;52.134;5.436;2024-01-10T02:21:59;103349.50;;;-3.93;61.45
80188;BME280;73735;52.134;5.436;2024-01-10T02:24:25;103337.44;;;-3.95;61.61
80188;BME280;73735;52.134;5.436;2024-01-10T02:26:52;103330.50;;;-3.98;61.54
80188;BME280;73735;52.134;5.436;2024-01-10T02:29:18;103330.56;;;-3.95;61.86
80188;BME280;73735;52.134;5.436;2024-01-10T02:31:45;103337.31;;;-4.01;61.81
80188;BME280;73735;52.134;5.436;2024-01-10T02:34:11;103325.31;;;-3.99;61.97
80188;BME280;73735;52.134;5.436;2024-01-10T02:36:38;103326.16;;;-4.00;62.00
80188;BME280;73735;52.134;5.436;2024-01-10T02:39:04;103323.59;;;-4.00;62.27
80188;BME280;73735;52.134;5.436;2024-01-10T02:41:31;103320.88;;;-4.08;62.57
80188;BME280;73735;52.134;5.436;2024-01-10T02:43:58;103314.84;;;-4.08;62.54
80188;BME280;73735;52.134;5.436;2024-01-10T02:46:25;103319.19;;;-4.06;62.91
80188;BME280;73735;52.134;5.436;2024-01-10T02:48:54;103314.00;;;-4.07;62.46
80188;BME280;73735;52.134;5.436;2024-01-10T02:51:21;103316.63;;;-4.06;62.72
80188;BME280;73735;52.134;5.436;2024-01-10T02:53:48;103319.16;;;-4.07;63.01
80188;BME280;73735;52.134;5.436;2024-01-10T02:56:14;103315.72;;;-4.08;63.07
80188;BME280;73735;52.134;5.436;2024-01-10T02:58:41;103318.38;;;-4.05;62.83
80188;BME280;73735;52.134;5.436;2024-01-10T03:01:07;103315.69;;;-4.09;62.77
80188;BME280;73735;52.134;5.436;2024-01-10T03:03:35;103325.91;;;-4.12;63.22
80188;BME280;73735;52.134;5.436;2024-01-10T03:06:02;103314.81;;;-4.10;62.99
80188;BME280;73735;52.134;5.436;2024-01-10T03:08:28;103318.25;;;-4.09;63.26
80188;BME280;73735;52.134;5.436;2024-01-10T03:10:55;103318.28;;;-4.08;63.52
80188;BME280;73735;52.134;5.436;2024-01-10T03:13:21;103316.56;;;-4.09;63.22
80188;BME280;73735;52.134;5.436;2024-01-10T03:15:48;103316.56;;;-4.09;63.24
80188;BME280;73735;52.134;5.436;2024-01-10T03:18:14;103313.22;;;-4.05;63.21
80188;BME280;73735;52.134;5.436;2024-01-10T03:20:41;103316.47;;;-4.12;63.25
80188;BME280;73735;52.134;5.436;2024-01-10T03:23:08;103311.44;;;-4.07;63.78
80188;BME280;73735;52.134;5.436;2024-01-10T03:25:34;103311.44;;;-4.07;63.50
80188;BME280;73735;52.134;5.436;2024-01-10T03:28:00;103308.00;;;-4.08;63.70
80188;BME280;73735;52.134;5.436;2024-01-10T03:30:27;103306.22;;;-4.10;63.50
80188;BME280;73735;52.134;5.436;2024-01-10T03:32:53;103310.47;;;-4.12;63.52
80188;BME280;73735;52.134;5.436;2024-01-10T03:35:20;103308.69;;;-4.16;63.73
80188;BME280;73735;52.134;5.436;2024-01-10T03:37:47;103321.53;;;-4.15;63.70
80188;BME280;73735;52.134;5.436;2024-01-10T03:40:13;103304.41;;;-4.14;63.77
80188;BME280;73735;52.134;5.436;2024-01-10T03:42:40;103310.38;;;-4.15;63.65
80188;BME280;73735;52.134;5.436;2024-01-10T03:45:06;103308.69;;;-4.15;63.88
80188;BME280;73735;52.134;5.436;2024-01-10T03:47:33;103305.19;;;-4.18;63.92
80188;BME280;73735;52.134;5.436;2024-01-10T03:49:59;103307.78;;;-4.18;63.84
80188;BME280;73735;52.134;5.436;2024-01-10T03:52:26;103306.06;;;-4.18;63.69
80188;BME280;73735;52.134;5.436;2024-01-10T03:54:52;103305.25;;;-4.15;64.00
80188;BME280;73735;52.134;5.436;2024-01-10T03:57:19;103301.84;;;-4.16;63.59
80188;BME280;73735;52.134;5.436;2024-01-10T03:59:45;103300.81;;;-4.22;63.75
80188;BME280;73735;52.134;5.436;2024-01-10T04:02:12;103296.47;;;-4.25;64.14
80188;BME280;73735;52.134;5.436;2024-01-10T04:04:38;103296.53;;;-4.22;64.19
80188;BME280;73735;52.134;5.436;2024-01-10T04:07:06;103289.81;;;-4.17;63.73
80188;BME280;73735;52.134;5.436;2024-01-10T04:09:32;103293.22;;;-4.18;64.02
80188;BME280;73735;52.134;5.436;2024-01-10T04:11:58;103294.03;;;-4.19;63.99
80188;BME280;73735;52.134;5.436;2024-01-10T04:14:25;103291.41;;;-4.22;63.57
80188;BME280;73735;52.134;5.436;2024-01-10T04:16:53;103291.25;;;-4.28;63.66
80188;BME280;73735;52.134;5.436;2024-01-10T04:19:19;103281.78;;;-4.29;63.92
80188;BME280;73735;52.134;5.436;2024-01-10T04:21:47;103289.47;;;-4.32;63.99
80188;BME280;73735;52.134;5.436;2024-01-10T04:24:13;103293.72;;;-4.34;64.07
80188;BME280;73735;52.134;5.436;2024-01-10T04:26:40;103293.72;;;-4.34;64.30
80188;BME280;73735;52.134;5.436;2024-01-10T04:29:06;103298.06;;;-4.30;63.77
80188;BME280;73735;52.134;5.436;2024-01-10T04:31:33;103293.03;;;-4.26;63.58
80188;BME280;73735;52.134;5.436;2024-01-10T04:33:59;103286.94;;;-4.29;63.94
80188;BME280;73735;52.134;5.436;2024-01-10T04:36:26;103298.94;;;-4.30;63.94
80188;BME280;73735;52.134;5.436;2024-01-10T04:38:52;103286.03;;;-4.33;63.71
80188;BME280;73735;52.134;5.436;2024-01-10T04:41:19;103290.31;;;-4.33;63.89
80188;BME280;73735;52.134;5.436;2024-01-10T04:43:46;103291.97;;;-4.35;64.03
80188;BME280;73735;52.134;5.436;2024-01-10T04:46:12;103286.81;;;-4.35;63.86
80188;BME280;73735;52.134;5.436;2024-01-10T04:48:39;103278.28;;;-4.34;63.80
80188;BME280;73735;52.134;5.436;2024-01-10T04:51:05;103276.53;;;-4.35;63.92
80188;BME280;73735;52.134;5.436;2024-01-10T04:53:32;103278.13;;;-4.40;63.83
80188;BME280;73735;52.134;5.436;2024-01-10T04:55:59;103278.06;;;-4.43;63.96
80188;BME280;73735;52.134;5.436;2024-01-10T04:58:25;103278.22;;;-4.37;64.23
80188;BME280;73735;52.134;5.436;2024-01-10T05:00:52;103275.59;;;-4.39;63.91
80188;BME280;73735;52.134;5.436;2024-01-10T05:03:18;103269.53;;;-4.41;64.01
80188;BME280;73735;52.134;5.436;2024-01-10T05:05:45;103269.63;;;-4.38;63.89
80188;BME280;73735;52.134;5.436;2024-01-10T05:08:12;103262.63;;;-4.43;63.50
80188;BME280;73735;52.134;5.436;2024-01-10T05:10:38;103272.91;;;-4.43;64.03
80188;BME280;73735;52.134;5.436;2024-01-10T05:13:05;103269.47;;;-4.45;64.06
80188;BME280;73735;52.134;5.436;2024-01-10T05:15:31;103268.59;;;-4.44;63.80
80188;BME280;73735;52.134;5.436;2024-01-10T05:17:58;103266.09;;;-4.41;63.85
80188;BME280;73735;52.134;5.436;2024-01-10T05:20:24;103263.63;;;-4.38;63.94
80188;BME280;73735;52.134;5.436;2024-01-10T05:22:50;103259.31;;;-4.39;63.86
80188;BME280;73735;52.134;5.436;2024-01-10T05:25:17;103262.59;;;-4.45;63.66
80188;BME280;73735;52.134;5.436;2024-01-10T05:27:44;103260.09;;;-4.42;64.27
80188;BME280;73735;52.134;5.436;2024-01-10T05:30:11;103255.81;;;-4.41;63.66
80188;BME280;73735;52.134;5.436;2024-01-10T05:32:39;103261.75;;;-4.45;64.15
80188;BME280;73735;52.134;5.436;2024-01-10T05:35:05;103263.47;;;-4.44;63.69
80188;BME280;73735;52.134;5.436;2024-01-10T05:37:32;103259.22;;;-4.42;64.34
80188;BME280;73735;52.134;5.436;2024-01-10T05:39:59;103248.94;;;-4.42;64.28
80188;BME280;73735;52.134;5.436;2024-01-10T05:42:25;103247.16;;;-4.46;63.76
80188;BME280;73735;52.134;5.436;2024-01-10T05:44:53;103248.00;;;-4.47;64.45
80188;BME280;73735;52.134;5.436;2024-01-10T05:47:19;103253.13;;;-4.47;64.29
80188;BME280;73735;52.134;5.436;2024-01-10T05:49:45;103250.69;;;-4.41;64.21
80188;BME280;73735;52.134;5.436;2024-01-10T05:52:12;103244.84;;;-4.34;64.37
80188;BME280;73735;52.134;5.436;2024-01-10T05:54:39;103254.31;;;-4.33;64.17
80188;BME280;73735;52.134;5.436;2024-01-10T05:57:05;103249.13;;;-4.35;64.30
80188;BME280;73735;52.134;5.436;2024-01-10T05:59:32;103249.97;;;-4.36;63.94
80188;BME280;73735;52.134;5.436;2024-01-10T06:01:58;103243.84;;;-4.41;64.11
80188;BME280;73735;52.134;5.436;2024-01-10T06:04:25;103245.88;;;-3.84;64.26
80188;BME280;73735;52.134;5.436;2024-01-10T06:06:52;103234.38;;;-4.03;63.44
80188;BME280;73735;52.134;5.436;2024-01-10T06:09:18;103249.53;;;-4.15;63.70
80188;BME280;73735;52.134;5.436;2024-01-10T06:11:48;103239.06;;;-4.24;63.58
80188;BME280;73735;52.134;5.436;2024-01-10T06:14:15;103252.03;;;-4.19;63.75
80188;BME280;73735;52.134;5.436;2024-01-10T06:16:41;103251.09;;;-4.23;63.55
80188;BME280;73735;52.134;5.436;2024-01-10T06:19:08;103257.06;;;-4.24;63.46
80188;BME280;73735;52.134;5.436;2024-01-10T06:21:37;103251.13;;;-4.21;63.70
80188;BME280;73735;52.134;5.436;2024-01-10T06:24:04;103254.63;;;-4.18;63.61
80188;BME280;73735;52.134;5.436;2024-01-10T06:26:30;103255.53;;;-4.16;63.59
80188;BME280;73735;52.134;5.436;2024-01-10T06:28:57;103249.53;;;-4.16;63.33
80188;BME280;73735;52.134;5.436;2024-01-10T06:31:24;103254.56;;;-4.21;63.60
80188;BME280;73735;52.134;5.436;2024-01-10T06:33:50;103248.56;;;-4.21;63.83
80188;BME280;73735;52.134;5.436;2024-01-10T06:36:17;103243.00;;;-4.01;63.80
80188;BME280;73735;52.134;5.436;2024-01-10T06:38:44;103246.09;;;-4.17;63.31
80188;BME280;73735;52.134;5.436;2024-01-10T06:41:11;103242.47;;;-4.25;63.81
80188;BME280;73735;52.134;5.436;2024-01-10T06:43:40;103245.78;;;-4.31;63.86
80188;BME280;73735;52.134;5.436;2024-01-10T06:46:07;103248.25;;;-4.35;64.02
80188;BME280;73735;52.134;5.436;2024-01-10T06:48:33;103247.44;;;-4.34;63.51
80188;BME280;73735;52.134;5.436;2024-01-10T06:51:00;103254.28;;;-4.35;63.81
80188;BME280;73735;52.134;5.436;2024-01-10T06:53:26;103249.94;;;-4.37;63.76
80188;BME280;73735;52.134;5.436;2024-01-10T06:55:53;103248.19;;;-4.38;63.79
80188;BME280;73735;52.134;5.436;2024-01-10T06:58:19;103253.25;;;-4.41;64.24
80188;BME280;73735;52.134;5.436;2024-01-10T07:00:46;103255.75;;;-4.44;64.27
80188;BME280;73735;52.134;5.436;2024-01-10T07:03:12;103252.22;;;-4.49;65.02
80188;BME280;73735;52.134;5.436;2024-01-10T07:05:39;103253.03;;;-4.52;64.49
80188;BME280;73735;52.134;5.436;2024-01-10T07:08:05;103249.53;;;-4.54;64.96
80188;BME280;73735;52.134;5.436;2024-01-10T07:10:32;103253.75;;;-4.57;65.40
80188;BME280;73735;52.134;5.436;2024-01-10T07:12:58;103257.25;;;-4.54;64.66
80188;BME280;73735;52.134;5.436;2024-01-10T07:15:25;103257.13;;;-4.58;64.93
80188;BME280;73735;52.134;5.436;2024-01-10T07:17:51;103253.78;;;-4.56;64.59
80188;BME280;73735;52.134;5.436;2024-01-10T07:20:18;103247.00;;;-4.52;64.25
80188;BME280;73735;52.134;5.436;2024-01-10T07:22:45;103252.06;;;-4.55;64.77
80188;BME280;73735;52.134;5.436;2024-01-10T07:25:12;103247.81;;;-4.55;65.09
80188;BME280;73735;52.134;5.436;2024-01-10T07:27:41;103250.31;;;-4.58;64.84
80188;BME280;73735;52.134;5.436;2024-01-10T07:30:08;103263.19;;;-4.56;64.81
80188;BME280;73735;52.134;5.436;2024-01-10T07:32:44;103254.56;;;-4.58;64.90
80188;BME280;73735;52.134;5.436;2024-01-10T07:35:12;103266.47;;;-4.64;64.64
80188;BME280;73735;52.134;5.436;2024-01-10T07:37:41;103259.50;;;-4.68;64.67
80188;BME280;73735;52.134;5.436;2024-01-10T07:40:09;103255.19;;;-4.69;63.98
80188;BME280;73735;52.134;5.436;2024-01-10T07:42:37;103269.13;;;-4.60;64.17
80188;BME280;73735;52.134;5.436;2024-01-10T07:45:04;103270.81;;;-4.59;64.28
80188;BME280;73735;52.134;5.436;2024-01-10T07:47:31;103267.41;;;-4.58;63.74
80188;BME280;73735;52.134;5.436;2024-01-10T07:49:58;103267.38;;;-4.62;64.22
80188;BME280;73735;52.134;5.436;2024-01-10T07:52:24;103270.81;;;-4.59;63.79
80188;BME280;73735;52.134;5.436;2024-01-10T07:54:51;103273.41;;;-4.59;63.89
80188;BME280;73735;52.134;5.436;2024-01-10T07:57:17;103271.78;;;-4.56;63.53
80188;BME280;73735;52.134;5.436;2024-01-10T07:59:45;103286.44;;;-4.52;63.14
80188;BME280;73735;52.134;5.436;2024-01-10T08:02:11;103290.78;;;-4.49;62.88
80188;BME280;73735;52.134;5.436;2024-01-10T08:04:38;103286.59;;;-4.44;62.60
80188;BME280;73735;52.134;5.436;2024-01-10T08:07:05;103290.03;;;-4.44;62.39
80188;BME280;73735;52.134;5.436;2024-01-10T08:09:32;103289.25;;;-4.41;62.93
80188;BME280;73735;52.134;5.436;2024-01-10T08:11:58;103288.50;;;-4.37;62.85
80188;BME280;73735;52.134;5.436;2024-01-10T08:14:25;103284.25;;;-4.35;62.88
80188;BME280;73735;52.134;5.436;2024-01-10T08:16:51;103284.25;;;-4.35;62.79
80188;BME280;73735;52.134;5.436;2024-01-10T08:19:20;103281.75;;;-4.32;62.75
80188;BME280;73735;52.134;5.436;2024-01-10T08:21:47;103286.94;;;-4.31;62.69
80188;BME280;73735;52.134;5.436;2024-01-10T08:24:14;103280.22;;;-4.24;61.95
80188;BME280;73735;52.134;5.436;2024-01-10T08:26:40;103278.44;;;-4.27;61.96
80188;BME280;73735;52.134;5.436;2024-01-10T08:29:06;103277.63;;;-4.24;62.39
80188;BME280;73735;52.134;5.436;2024-01-10T08:31:33;103264.78;;;-4.24;62.33
80188;BME280;73735;52.134;5.436;2024-01-10T08:34:00;103274.22;;;-4.23;62.21
80188;BME280;73735;52.134;5.436;2024-01-10T08:36:26;103275.13;;;-4.21;61.70
80188;BME280;73735;52.134;5.436;2024-01-10T08:38:53;103272.63;;;-4.18;61.90
80188;BME280;73735;52.134;5.436;2024-01-10T08:41:20;103275.34;;;-4.10;61.40
80188;BME280;73735;52.134;5.436;2024-01-10T08:43:47;103261.69;;;-4.08;61.73
80188;BME280;73735;52.134;5.436;2024-01-10T08:46:13;103261.00;;;-4.01;61.35
80188;BME280;73735;52.134;5.436;2024-01-10T08:48:41;103269.63;;;-3.97;61.07
80188;BME280;73735;52.134;5.436;2024-01-10T08:51:08;103277.50;;;-3.91;60.89
80188;BME280;73735;52.134;5.436;2024-01-10T08:53:36;103269.78;;;-3.91;60.22
80188;BME280;73735;52.134;5.436;2024-01-10T08:56:03;103260.38;;;-3.89;59.85
80188;BME280;73735;52.134;5.436;2024-01-10T08:58:29;103253.53;;;-3.88;59.47
80188;BME280;73735;52.134;5.436;2024-01-10T09:00:56;103248.56;;;-3.79;59.44
80188;BME280;73735;52.134;5.436;2024-01-10T09:03:22;103257.25;;;-3.74;59.74
80188;BME280;73735;52.134;5.436;2024-01-10T09:05:49;103259.03;;;-3.69;59.36
80188;BME280;73735;52.134;5.436;2024-01-10T09:08:34;103266.81;;;-3.67;58.91
80188;BME280;73735;52.134;5.436;2024-01-10T09:11:00;103263.47;;;-3.63;59.10
80188;BME280;73735;52.134;5.436;2024-01-10T09:13:27;103262.72;;;-3.58;58.74
80188;BME280;73735;52.134;5.436;2024-01-10T09:15:54;103266.25;;;-3.51;58.35
80188;BME280;73735;52.134;5.436;2024-01-10T09:18:20;103256.88;;;-3.47;58.06
80188;BME280;73735;52.134;5.436;2024-01-10T09:20:47;103266.38;;;-3.45;57.89
80188;BME280;73735;52.134;5.436;2024-01-10T09:23:14;103268.22;;;-3.38;57.81
80188;BME280;73735;52.134;5.436;2024-01-10T09:25:41;103262.28;;;-3.34;57.42
80188;BME280;73735;52.134;5.436;2024-01-10T09:28:08;103263.28;;;-3.27;57.46
80188;BME280;73735;52.134;5.436;2024-01-10T09:30:34;103256.59;;;-3.16;57.18
80188;BME280;73735;52.134;5.436;2024-01-10T09:33:03;103268.63;;;-3.16;56.79
80188;BME280;73735;52.134;5.436;2024-01-10T09:35:30;103264.38;;;-3.13;56.28
80188;BME280;73735;52.134;5.436;2024-01-10T09:37:56;103252.53;;;-3.03;56.69
80188;BME280;73735;52.134;5.436;2024-01-10T09:40:23;103256.84;;;-3.01;55.82
80188;BME280;73735;52.134;5.436;2024-01-10T09:42:54;103261.22;;;-2.95;55.61
80188;BME280;73735;52.134;5.436;2024-01-10T09:45:21;103262.13;;;-2.93;55.40
80188;BME280;73735;52.134;5.436;2024-01-10T09:47:56;103251.88;;;-2.90;54.86
80188;BME280;73735;52.134;5.436;2024-01-10T09:50:23;103256.28;;;-2.83;54.75
80188;BME280;73735;52.134;5.436;2024-01-10T09:52:53;103253.75;;;-2.80;53.89
80188;BME280;73735;52.134;5.436;2024-01-10T09:55:22;103254.75;;;-2.72;53.65
80188;BME280;73735;52.134;5.436;2024-01-10T09:57:51;103263.41;;;-2.68;53.25
80188;BME280;73735;52.134;5.436;2024-01-10T10:00:17;103264.34;;;-2.62;53.29
80188;BME280;73735;52.134;5.436;2024-01-10T10:02:46;103259.25;;;-2.59;53.37
80188;BME280;73735;52.134;5.436;2024-01-10T10:05:16;103260.19;;;-2.52;52.97
80188;BME280;73735;52.134;5.436;2024-01-10T10:10:10;103243.09;;;-2.45;52.62
80188;BME280;73735;52.134;5.436;2024-01-10T10:12:56;103250.00;;;-2.43;52.54
80188;BME280;73735;52.134;5.436;2024-01-10T10:15:24;103250.94;;;-2.36;52.33
80188;BME280;73735;52.134;5.436;2024-01-10T10:17:54;103249.31;;;-2.31;52.34
80188;BME280;73735;52.134;5.436;2024-01-10T10:20:26;103252.81;;;-2.28;52.08
80188;BME280;73735;52.134;5.436;2024-01-10T10:23:03;103255.44;;;-2.22;52.12
80188;BME280;73735;52.134;5.436;2024-01-10T10:25:35;103254.56;;;-2.22;52.17
80188;BME280;73735;52.134;5.436;2024-01-10T10:28:03;103258.09;;;-2.17;51.61
80188;BME280;73735;52.134;5.436;2024-01-10T10:30:32;103253.00;;;-2.13;50.98
80188;BME280;73735;52.134;5.436;2024-01-10T10:33:00;103249.63;;;-2.08;51.43
80188;BME280;73735;52.134;5.436;2024-01-10T10:35:27;103248.81;;;-2.03;51.27
80188;BME280;73735;52.134;5.436;2024-01-10T10:38:07;103237.66;;;-2.02;51.18
80188;BME280;73735;52.134;5.436;2024-01-10T10:40:36;103241.97;;;-2.01;51.08
80188;BME280;73735;52.134;5.436;2024-01-10T10:43:03;103240.31;;;-1.93;50.68
80188;BME280;73735;52.134;5.436;2024-01-10T10:45:31;103229.25;;;-1.86;50.49
80188;BME280;73735;52.134;5.436;2024-01-10T10:48:00;103227.59;;;-1.81;50.55
80188;BME280;73735;52.134;5.436;2024-01-10T10:50:31;103234.50;;;-1.77;50.33
80188;BME280;73735;52.134;5.436;2024-01-10T10:53:00;103234.56;;;-1.70;49.35
80188;BME280;73735;52.134;5.436;2024-01-10T10:55:29;103235.47;;;-1.67;49.88
80188;BME280;73735;52.134;5.436;2024-01-10T10:57:55;103223.47;;;-1.63;50.13
80188;BME280;73735;52.134;5.436;2024-01-10T11:00:33;103229.56;;;-1.57;49.85
80188;BME280;73735;52.134;5.436;2024-01-10T11:03:03;103228.75;;;-1.53;50.06
80188;BME280;73735;52.134;5.436;2024-01-10T11:05:31;103238.25;;;-1.47;49.31
80188;BME280;73735;52.134;5.436;2024-01-10T11:07:58;103230.50;;;-1.47;49.53
80188;BME280;73735;52.134;5.436;2024-01-10T11:10:31;103231.38;;;-1.45;48.99
80188;BME280;73735;52.134;5.436;2024-01-10T11:13:13;103236.56;;;-1.44;48.64
80188;BME280;73735;52.134;5.436;2024-01-10T11:18:41;103239.25;;;-1.34;48.77
80188;BME280;73735;52.134;5.436;2024-01-10T11:23:48;103233.28;;;-1.29;48.02
80188;BME280;73735;52.134;5.436;2024-01-10T11:26:16;103226.41;;;-1.25;48.52
80188;BME280;73735;52.134;5.436;2024-01-10T11:28:46;103224.75;;;-1.20;48.17
80188;BME280;73735;52.134;5.436;2024-01-10T11:31:20;103218.72;;;-1.16;48.25
80188;BME280;73735;52.134;5.436;2024-01-10T11:33:53;103228.28;;;-1.09;48.25
80188;BME280;73735;52.134;5.436;2024-01-10T11:36:19;103227.47;;;-1.05;47.91
80188;BME280;73735;52.134;5.436;2024-01-10T11:41:24;103226.63;;;-1.01;47.08
80188;BME280;73735;52.134;5.436;2024-01-10T11:46:52;103205.94;;;-0.99;46.97
80188;BME280;73735;52.134;5.436;2024-01-10T11:49:20;103204.28;;;-0.94;47.29
80188;BME280;73735;52.134;5.436;2024-01-10T11:51:48;103206.91;;;-0.90;46.89
80188;BME280;73735;52.134;5.436;2024-01-10T11:54:34;103212.94;;;-0.85;46.37
80188;BME280;73735;52.134;5.436;2024-01-10T11:57:01;103210.41;;;-0.80;46.35
80188;BME280;73735;52.134;5.436;2024-01-10T11:59:29;103204.41;;;-0.75;46.93
80188;BME280;73735;52.134;5.436;2024-01-10T12:01:57;103200.09;;;-0.73;46.25
80188;BME280;73735;52.134;5.436;2024-01-10T12:04:23;103203.56;;;-0.69;46.44
80188;BME280;73735;52.134;5.436;2024-01-10T12:07:07;103199.28;;;-0.65;45.57
80188;BME280;73735;52.134;5.436;2024-01-10T12:09:34;103195.00;;;-0.63;45.66
80188;BME280;73735;52.134;5.436;2024-01-10T12:12:02;103189.84;;;-0.62;45.40
80188;BME280;73735;52.134;5.436;2024-01-10T12:14:29;103182.94;;;-0.57;45.06
80188;BME280;73735;52.134;5.436;2024-01-10T12:16:57;103190.72;;;-0.55;45.63
80188;BME280;73735;52.134;5.436;2024-01-10T12:19:23;103189.88;;;-0.51;45.50
80188;BME280;73735;52.134;5.436;2024-01-10T12:21:50;103185.63;;;-0.46;45.87
80188;BME280;73735;52.134;5.436;2024-01-10T12:24:16;103187.31;;;-0.44;45.71
80188;BME280;73735;52.134;5.436;2024-01-10T12:26:47;103182.16;;;-0.41;44.64
80188;BME280;73735;52.134;5.436;2024-01-10T12:29:17;103177.88;;;-0.37;45.21
80188;BME280;73735;52.134;5.436;2024-01-10T12:31:44;103172.72;;;-0.32;45.13
80188;BME280;73735;52.134;5.436;2024-01-10T12:34:12;103177.06;;;-0.30;45.18
80188;BME280;73735;52.134;5.436;2024-01-10T12:36:38;103172.75;;;-0.23;45.46
80188;BME280;73735;52.134;5.436;2024-01-10T12:39:06;103175.38;;;-0.20;45.18
80188;BME280;73735;52.134;5.436;2024-01-10T12:41:34;103167.59;;;-0.20;45.52
80188;BME280;73735;52.134;5.436;2024-01-10T12:44:01;103170.19;;;-0.20;44.57
80188;BME280;73735;52.134;5.436;2024-01-10T12:46:32;103171.06;;;-0.20;44.17
80188;BME280;73735;52.134;5.436;2024-01-10T12:49:04;103155.53;;;-0.17;44.36
80188;BME280;73735;52.134;5.436;2024-01-10T12:51:35;103162.44;;;-0.14;44.44
80188;BME280;73735;52.134;5.436;2024-01-10T12:54:03;103165.03;;;-0.13;44.51
80188;BME280;73735;52.134;5.436;2024-01-10T12:56:33;103156.41;;;-0.10;44.39
80188;BME280;73735;52.134;5.436;2024-01-10T12:59:00;103161.59;;;-0.10;44.08
80188;BME280;73735;52.134;5.436;2024-01-10T13:01:27;103166.78;;;-0.07;44.48
80188;BME280;73735;52.134;5.436;2024-01-10T13:03:54;103168.50;;;-0.06;44.12
80188;BME280;73735;52.134;5.436;2024-01-10T13:06:21;103168.50;;;-0.06;44.53